Time;durP1;ratioP1;P1;durP2;ratioP2;P2;SDS_P1;SDS_P2;PMS_P1;PMS_P2;Temp;Humidity;BMP_temperature;BMP_pressure;BME280_temperature;BME280_humidity;BME280_pressure;Samples;Min_cycle;Max_cycle;Signal;HPM_P1;HPM_P2
2022/04/18 00:00:13;;;;;;;13.38;10.45;;;8.40;90.30;;;;;;5076594;28;20040;-82
2022/04/18 00:02:38;;;;;;;14.68;11.63;;;8.30;78.70;;;;;;5068512;28;20044;-82
2022/04/18 00:05:04;;;;;;;15.73;11.55;;;8.30;78.90;;;;;;5070346;28;20036;-82
2022/04/18 00:07:30;;;;;;;14.80;11.38;;;8.30;79.10;;;;;;5072036;28;20409;-82
2022/04/18 00:09:56;;;;;;;12.85;11.02;;;8.20;81.00;;;;;;5084958;28;20045;-82
2022/04/18 00:12:21;;;;;;;13.43;11.63;;;8.20;80.20;;;;;;5079808;28;20045;-82
2022/04/18 00:14:47;;;;;;;12.70;11.25;;;8.20;81.40;;;;;;5074425;28;20041;-82
2022/04/18 00:17:12;;;;;;;13.93;11.07;;;8.20;80.70;;;;;;5083859;28;20129;-83
2022/04/18 00:19:38;;;;;;;13.95;10.80;;;8.10;86.40;;;;;;5059908;28;20076;-82
2022/04/18 00:22:05;;;;;;;14.25;10.73;;;8.10;91.50;;;;;;5070928;28;20037;-82
2022/04/18 00:24:31;;;;;;;12.88;11.32;;;8.10;92.50;;;;;;5055573;28;20045;-82
2022/04/18 00:26:56;;;;;;;13.70;11.27;;;8.10;90.20;;;;;;5076148;28;20036;-82
2022/04/18 00:29:22;;;;;;;16.23;11.52;;;8.10;87.70;;;;;;5077184;28;20040;-82
2022/04/18 00:31:47;;;;;;;14.77;11.05;;;8.10;85.00;;;;;;5073016;28;20458;-82
2022/04/18 00:34:14;;;;;;;13.65;11.55;;;8.00;89.50;;;;;;5071217;28;20102;-82
2022/04/18 00:36:40;;;;;;;13.75;11.65;;;8.00;87.20;;;;;;5069697;28;20127;-82
2022/04/18 00:39:06;;;;;;;13.93;11.88;;;7.90;86.00;;;;;;5071315;28;20059;-82
2022/04/18 00:41:31;;;;;;;14.43;11.25;;;7.80;89.00;;;;;;5070676;28;20123;-82
2022/04/18 00:43:57;;;;;;;16.38;11.57;;;7.80;90.20;;;;;;5075078;28;20048;-82
2022/04/18 00:46:23;;;;;;;14.13;11.40;;;7.80;86.60;;;;;;5089655;28;20478;-82
2022/04/18 00:48:48;;;;;;;14.25;11.52;;;7.70;88.10;;;;;;5073747;28;20352;-82
2022/04/18 00:51:17;;;;;;;13.02;11.43;;;7.70;90.30;;;;;;5073811;28;20033;-82
2022/04/18 00:53:44;;;;;;;14.85;11.52;;;7.70;89.30;;;;;;5058295;28;20036;-82
2022/04/18 00:56:13;;;;;;;13.40;11.85;;;7.60;90.40;;;;;;5060066;28;20119;-83
2022/04/18 00:58:41;;;;;;;15.75;12.52;;;7.60;91.30;;;;;;5074319;28;20044;-82
2022/04/18 01:01:07;;;;;;;14.52;12.63;;;7.50;90.40;;;;;;5055926;28;20687;-82
2022/04/18 01:03:33;;;;;;;16.20;12.95;;;7.50;90.40;;;;;;5074550;28;20052;-82
2022/04/18 01:06:00;;;;;;;15.13;12.20;;;7.50;91.00;;;;;;5082948;28;20462;-82
2022/04/18 01:08:31;;;;;;;15.48;12.77;;;7.40;91.20;;;;;;5072949;28;20117;-82
2022/04/18 01:10:57;;;;;;;17.08;13.57;;;7.30;91.30;;;;;;5081663;28;20040;-82
2022/04/18 01:13:22;;;;;;;14.85;12.57;;;7.30;92.00;;;;;;5073181;28;20509;-82
2022/04/18 01:15:52;;;;;;;14.43;11.43;;;7.20;92.10;;;;;;5077452;28;20040;-82
2022/04/18 01:18:18;;;;;;;16.20;12.88;;;7.20;93.20;;;;;;5053561;28;20041;-82
2022/04/18 01:20:44;;;;;;;14.15;11.70;;;7.20;92.80;;;;;;5079845;28;20045;-82
2022/04/18 01:23:10;;;;;;;16.35;12.75;;;7.20;94.70;;;;;;5083098;28;20055;-82
2022/04/18 01:31:05;;;;;;;14.52;12.23;;;7.20;94.90;;;;;;5072065;28;20056;-82
2022/04/18 01:33:30;;;;;;;16.88;12.70;;;7.10;92.90;;;;;;5065811;28;20040;-82
2022/04/18 01:35:56;;;;;;;18.95;13.15;;;7.20;93.30;;;;;;5074874;28;20090;-82
2022/04/18 01:38:22;;;;;;;15.38;12.25;;;7.20;93.50;;;;;;5066360;28;20048;-81
2022/04/18 01:40:48;;;;;;;15.27;12.18;;;7.20;94.80;;;;;;5078360;28;20036;-82
2022/04/18 01:43:13;;;;;;;17.05;13.00;;;7.10;93.80;;;;;;5072808;28;20128;-82
2022/04/18 01:45:39;;;;;;;16.60;12.73;;;7.10;95.00;;;;;;5050444;28;20041;-82
2022/04/18 01:48:05;;;;;;;16.85;12.88;;;7.10;94.30;;;;;;5073199;28;20036;-82
2022/04/18 01:50:30;;;;;;;16.77;13.15;;;7.00;94.10;;;;;;5074046;28;20048;-82
2022/04/18 01:52:56;;;;;;;16.88;13.43;;;7.00;94.50;;;;;;5076025;28;20048;-82
2022/04/18 01:55:21;;;;;;;19.20;13.18;;;7.00;95.20;;;;;;5070766;28;20107;-82
2022/04/18 01:57:47;;;;;;;17.45;13.15;;;7.00;95.00;;;;;;5063188;28;20036;-82
2022/04/18 02:00:13;;;;;;;15.40;12.70;;;6.90;94.50;;;;;;5072375;28;20040;-82
2022/04/18 02:02:38;;;;;;;17.85;12.85;;;6.90;94.40;;;;;;5071235;28;20040;-82
2022/04/18 02:05:06;;;;;;;18.95;13.70;;;6.90;97.20;;;;;;5082053;28;20067;-82
2022/04/18 02:07:32;;;;;;;20.45;13.50;;;7.00;94.40;;;;;;5075821;28;20047;-82
2022/04/18 02:09:58;;;;;;;17.98;13.05;;;7.00;97.60;;;;;;5072620;28;20155;-82
2022/04/18 02:12:23;;;;;;;18.08;13.77;;;6.90;96.60;;;;;;5073208;28;20119;-82
2022/04/18 02:14:49;;;;;;;19.48;14.23;;;6.90;94.70;;;;;;5055255;28;20036;-81
2022/04/18 02:17:14;;;;;;;19.45;14.32;;;6.90;96.00;;;;;;5067824;28;20481;-82
2022/04/18 02:19:40;;;;;;;18.30;13.95;;;6.80;96.90;;;;;;5071020;28;22711;-82
2022/04/18 02:22:06;;;;;;;18.95;14.35;;;6.80;95.40;;;;;;5074291;28;20094;-82
2022/04/18 02:24:32;;;;;;;18.08;14.23;;;6.80;97.30;;;;;;5069041;28;20047;-82
2022/04/18 02:26:58;;;;;;;23.63;15.15;;;6.80;96.90;;;;;;5069663;28;20505;-82
2022/04/18 02:29:24;;;;;;;20.65;14.77;;;6.80;96.50;;;;;;5071623;28;20036;-82
2022/04/18 02:34:34;;;;;;;19.17;15.13;;;6.70;96.20;;;;;;5069568;28;20048;-82
2022/04/18 02:37:00;;;;;;;19.67;14.10;;;6.60;96.20;;;;;;5072525;28;20198;-82
2022/04/18 02:39:25;;;;;;;18.35;14.73;;;6.60;96.50;;;;;;5051276;28;20051;-82
2022/04/18 02:41:51;;;;;;;18.08;13.70;;;6.60;96.60;;;;;;5074186;28;20036;-81
2022/04/18 02:44:16;;;;;;;18.83;14.43;;;6.60;98.10;;;;;;5077989;28;20071;-81
2022/04/18 02:46:42;;;;;;;18.13;13.70;;;6.50;96.80;;;;;;5056635;28;20680;-81
2022/04/18 02:49:07;;;;;;;18.27;14.13;;;6.50;96.90;;;;;;5078762;28;20036;-82
2022/04/18 02:51:33;;;;;;;16.88;12.50;;;6.50;98.30;;;;;;5079956;28;20516;-81
2022/04/18 02:53:59;;;;;;;18.65;14.07;;;6.50;99.10;;;;;;5081424;28;20044;-81
2022/04/18 02:56:24;;;;;;;17.00;13.25;;;6.50;97.20;;;;;;5065437;28;20036;-81
2022/04/18 02:58:50;;;;;;;16.88;13.15;;;6.40;97.70;;;;;;5078592;28;20123;-81
2022/04/18 03:01:16;;;;;;;17.35;13.60;;;6.40;99.90;;;;;;5071891;28;20041;-82
2022/04/18 03:03:41;;;;;;;16.58;13.75;;;6.30;98.20;;;;;;5063159;28;20097;-81
2022/04/18 03:06:07;;;;;;;18.30;13.63;;;6.30;97.90;;;;;;5062111;28;20479;-81
2022/04/18 03:08:33;;;;;;;19.73;13.95;;;6.30;98.00;;;;;;5070627;28;20032;-81
2022/04/18 03:11:09;;;;;;;19.27;13.38;;;6.20;98.60;;;;;;5052528;28;20040;-81
2022/04/18 03:13:36;;;;;;;16.50;13.48;;;6.20;98.10;;;;;;5069529;28;20090;-82
2022/04/18 03:16:03;;;;;;;18.65;13.50;;;6.20;98.20;;;;;;5070957;28;20040;-81
2022/04/18 03:18:29;;;;;;;17.75;13.88;;;6.10;98.20;;;;;;5071042;28;20041;-81
2022/04/18 03:20:55;;;;;;;18.17;13.30;;;6.10;98.90;;;;;;5074343;28;20093;-82
2022/04/18 03:23:20;;;;;;;18.75;13.70;;;6.10;98.30;;;;;;5055380;28;20044;-81
2022/04/18 03:25:46;;;;;;;18.08;14.23;;;6.10;99.20;;;;;;5054604;28;20048;-81
2022/04/18 03:28:12;;;;;;;17.23;13.75;;;6.10;99.50;;;;;;5071397;28;20045;-80
2022/04/18 03:30:38;;;;;;;16.35;13.90;;;6.10;99.40;;;;;;5068845;28;20111;-81
2022/04/18 03:33:04;;;;;;;17.65;13.23;;;6.00;98.80;;;;;;5075624;28;20168;-81
2022/04/18 03:35:30;;;;;;;18.05;14.10;;;6.00;99.00;;;;;;5070594;28;20112;-82
2022/04/18 03:40:41;;;;;;;16.60;13.07;;;6.00;98.90;;;;;;5067680;28;20056;-82
2022/04/18 03:43:07;;;;;;;15.18;12.88;;;6.10;99.90;;;;;;5073200;28;20040;-81
2022/04/18 03:45:32;;;;;;;16.52;13.20;;;6.00;99.60;;;;;;5079467;28;20037;-82
2022/04/18 03:47:58;;;;;;;18.95;13.68;;;6.00;99.90;;;;;;5063766;28;20126;-81
2022/04/18 03:50:23;;;;;;;18.38;13.30;;;6.00;99.60;;;;;;5078920;28;20032;-81
2022/04/18 03:52:49;;;;;;;16.80;13.00;;;6.10;99.90;;;;;;5072369;28;20392;-82
2022/04/18 03:55:14;;;;;;;16.88;13.02;;;6.10;99.90;;;;;;5053449;28;20840;-81
2022/04/18 03:57:40;;;;;;;14.10;12.63;;;6.00;99.90;;;;;;5071765;28;20543;-82
2022/04/18 04:00:07;;;;;;;15.70;12.30;;;6.00;99.90;;;;;;5071195;28;20462;-81
2022/04/18 04:02:32;;;;;;;15.38;12.80;;;6.00;99.90;;;;;;5071540;28;20351;-81
2022/04/18 04:04:58;;;;;;;15.13;12.30;;;6.00;99.90;;;;;;5052681;28;20048;-82
2022/04/18 04:07:23;;;;;;;17.25;13.40;;;6.10;99.90;;;;;;5069220;28;20044;-81
2022/04/18 04:09:49;;;;;;;15.20;12.85;;;6.00;99.90;;;;;;5069040;28;20491;-81
2022/04/18 04:12:22;;;;;;;14.82;12.23;;;6.00;99.90;;;;;;5053715;28;20035;-81
2022/04/18 04:14:51;;;;;;;15.90;12.35;;;6.00;99.90;;;;;;5065406;28;20041;-81
2022/04/18 04:17:16;;;;;;;15.18;12.38;;;6.00;99.90;;;;;;5053938;28;20440;-81
2022/04/18 04:19:42;;;;;;;18.35;13.05;;;5.90;99.90;;;;;;5069167;28;20048;-81
2022/04/18 04:22:08;;;;;;;18.58;12.52;;;5.90;99.90;;;;;;5065673;28;20044;-81
2022/04/18 04:24:33;;;;;;;14.30;11.35;;;5.90;99.90;;;;;;5074798;28;20044;-82
2022/04/18 04:26:59;;;;;;;21.17;13.32;;;5.80;99.90;;;;;;5070662;28;20029;-82
2022/04/18 04:29:24;;;;;;;18.20;12.88;;;5.90;99.90;;;;;;5053525;28;20147;-81
2022/04/18 04:31:50;;;;;;;15.43;12.68;;;5.90;99.90;;;;;;5072984;28;20048;-82
2022/04/18 04:34:16;;;;;;;15.32;12.45;;;5.90;99.90;;;;;;5065678;28;20040;-82
2022/04/18 04:36:42;;;;;;;14.90;11.85;;;6.00;99.90;;;;;;5075634;28;20045;-79
2022/04/18 04:39:09;;;;;;;15.10;11.68;;;6.00;99.90;;;;;;5073092;28;20383;-83
2022/04/18 04:41:36;;;;;;;15.07;12.77;;;5.90;99.90;;;;;;5055055;28;20432;-82
2022/04/18 04:44:02;;;;;;;17.55;11.95;;;6.00;99.90;;;;;;5066375;28;20119;-83
2022/04/18 04:46:28;;;;;;;17.23;12.43;;;5.90;99.90;;;;;;5062635;28;20163;-83
2022/04/18 04:48:53;;;;;;;16.73;11.95;;;5.90;99.90;;;;;;5069548;28;20469;-81
2022/04/18 04:51:19;;;;;;;13.65;11.82;;;5.90;99.90;;;;;;5072675;28;20643;-82
2022/04/18 04:53:44;;;;;;;13.52;11.38;;;5.90;99.90;;;;;;5073408;28;20036;-82
2022/04/18 04:56:10;;;;;;;14.80;11.38;;;5.90;99.90;;;;;;5061154;28;20109;-82
2022/04/18 04:58:35;;;;;;;13.80;11.20;;;5.90;99.90;;;;;;5086403;28;20125;-82
2022/04/18 05:01:01;;;;;;;16.00;12.55;;;5.90;99.90;;;;;;5082763;28;20064;-82
2022/04/18 05:03:27;;;;;;;15.05;11.55;;;6.00;99.90;;;;;;5064088;28;20045;-81
2022/04/18 05:05:53;;;;;;;14.20;11.13;;;6.00;99.90;;;;;;5054975;28;20108;-82
2022/04/18 05:08:19;;;;;;;15.35;11.93;;;6.00;99.90;;;;;;5071368;28;20045;-82
2022/04/18 05:10:44;;;;;;;14.05;11.43;;;6.00;99.90;;;;;;5057408;28;20131;-82
2022/04/18 05:13:10;;;;;;;15.13;11.88;;;6.00;99.90;;;;;;5079085;28;20044;-82
2022/04/18 05:15:35;;;;;;;13.82;11.48;;;6.00;99.90;;;;;;5070981;28;20044;-83
2022/04/18 05:18:01;;;;;;;16.88;11.63;;;6.10;99.90;;;;;;5059403;28;20069;-82
2022/04/18 05:20:27;;;;;;;14.18;10.88;;;6.10;99.90;;;;;;5069834;28;20482;-82
2022/04/18 05:22:53;;;;;;;15.88;11.27;;;6.10;99.90;;;;;;5073768;28;20496;-82
2022/04/18 05:25:21;;;;;;;11.95;10.32;;;6.10;99.90;;;;;;5087203;28;20040;-81
2022/04/18 05:27:46;;;;;;;12.48;10.20;;;6.20;99.90;;;;;;5054696;28;20111;-80
2022/04/18 05:30:12;;;;;;;13.07;10.35;;;6.20;99.90;;;;;;5074311;28;20120;-81
2022/04/18 05:32:37;;;;;;;15.40;10.93;;;6.30;99.90;;;;;;5082974;28;20048;-82
2022/04/18 05:35:04;;;;;;;12.02;10.13;;;6.40;99.90;;;;;;5068132;28;20685;-81
2022/04/18 05:37:30;;;;;;;12.88;10.10;;;6.50;99.90;;;;;;5055137;28;20109;-81
2022/04/18 05:39:55;;;;;;;13.40;10.05;;;6.50;99.90;;;;;;5058850;28;20040;-82
2022/04/18 05:42:25;;;;;;;12.07;10.40;;;6.70;99.90;;;;;;5081828;28;20385;-82
2022/04/18 05:44:51;;;;;;;14.00;10.88;;;6.80;99.90;;;;;;5077006;28;20143;-79
2022/04/18 05:47:16;;;;;;;14.30;11.55;;;7.60;99.90;;;;;;5070093;28;20055;-82
2022/04/18 05:49:42;;;;;;;12.60;10.85;;;9.10;98.10;;;;;;5073630;28;20090;-81
2022/04/18 05:52:07;;;;;;;11.63;10.40;;;10.70;91.80;;;;;;5082263;28;20048;-83
2022/04/18 05:54:33;;;;;;;12.00;9.82;;;11.90;91.20;;;;;;5075149;28;20051;-83
2022/04/18 05:57:01;;;;;;;11.68;10.07;;;12.90;89.80;;;;;;5056417;28;20032;-83
2022/04/18 05:59:27;;;;;;;11.07;9.95;;;13.90;85.10;;;;;;5063844;28;20041;-83
2022/04/18 06:01:52;;;;;;;13.82;10.95;;;14.90;76.90;;;;;;5083140;28;20055;-83
2022/04/18 06:04:18;;;;;;;10.65;9.52;;;15.60;69.30;;;;;;5060662;28;20051;-83
2022/04/18 06:06:44;;;;;;;11.32;9.77;;;15.60;62.80;;;;;;5068675;28;20036;-82
2022/04/18 06:09:10;;;;;;;11.45;9.25;;;16.20;67.40;;;;;;5076146;28;20714;-83
2022/04/18 06:11:35;;;;;;;12.27;10.70;;;16.90;65.20;;;;;;5071927;28;20495;-83
2022/04/18 06:14:01;;;;;;;12.73;9.98;;;17.40;61.90;;;;;;5058322;28;20445;-83
2022/04/18 06:16:26;;;;;;;12.13;9.63;;;17.80;57.40;;;;;;5054610;28;20119;-82
2022/04/18 06:18:52;;;;;;;10.80;9.15;;;18.20;52.60;;;;;;5066769;28;20043;-82
2022/04/18 06:21:17;;;;;;;10.32;9.23;;;18.40;57.70;;;;;;5055421;28;20040;-82
2022/04/18 06:23:43;;;;;;;12.80;9.85;;;18.70;56.70;;;;;;5064074;28;20420;-82
2022/04/18 06:26:08;;;;;;;10.30;8.88;;;18.80;54.60;;;;;;5071998;28;20075;-82
2022/04/18 06:28:34;;;;;;;9.98;9.07;;;19.10;51.80;;;;;;5072873;28;20040;-83
2022/04/18 06:30:59;;;;;;;10.20;9.10;;;19.10;52.50;;;;;;5068523;28;20040;-83
2022/04/18 06:33:25;;;;;;;11.35;9.10;;;19.20;52.80;;;;;;5069191;28;20036;-83
2022/04/18 06:35:51;;;;;;;10.48;9.48;;;19.60;50.70;;;;;;5070826;28;20436;-83
2022/04/18 06:38:17;;;;;;;9.98;9.00;;;19.70;49.10;;;;;;5063663;28;20127;-82
2022/04/18 06:40:43;;;;;;;9.75;8.85;;;20.20;51.60;;;;;;5070818;28;20053;-82
2022/04/18 06:43:09;;;;;;;9.90;8.93;;;;;;;;;;5070323;28;20032;-82
2022/04/18 06:45:34;;;;;;;10.10;9.10;;;20.50;57.50;;;;;;5069210;28;20032;-82
2022/04/18 06:48:00;;;;;;;10.15;8.63;;;20.40;45.20;;;;;;5070432;28;20480;-83
2022/04/18 06:50:26;;;;;;;10.13;8.55;;;20.70;47.00;;;;;;5052644;28;20043;-81
2022/04/18 06:52:51;;;;;;;9.63;8.63;;;21.30;48.50;;;;;;5071422;28;20048;-82
2022/04/18 06:55:17;;;;;;;9.85;8.75;;;21.80;48.70;;;;;;5060470;28;20131;-83
2022/04/18 06:57:42;;;;;;;10.60;9.15;;;21.40;41.20;;;;;;5052551;28;20055;-82
2022/04/18 07:00:08;;;;;;;9.07;8.25;;;21.60;45.60;;;;;;5068553;28;20123;-83
2022/04/18 07:02:34;;;;;;;9.10;8.20;;;22.30;47.10;;;;;;5060041;28;20044;-82
2022/04/18 07:05:00;;;;;;;9.10;8.20;;;22.70;44.60;;;;;;5070306;28;20044;-81
2022/04/18 07:07:25;;;;;;;9.13;8.00;;;22.80;44.80;;;;;;5068445;28;20044;-83
2022/04/18 07:09:51;;;;;;;17.77;8.85;;;23.40;45.70;;;;;;5063955;28;20033;-81
2022/04/18 07:12:22;;;;;;;10.13;8.52;;;23.50;44.20;;;;;;5070099;28;20127;-82
2022/04/18 07:14:48;;;;;;;9.27;8.37;;;23.90;44.50;;;;;;5056682;28;20040;-81
2022/04/18 07:17:13;;;;;;;9.52;8.63;;;24.20;44.20;;;;;;5066302;28;20052;-82
2022/04/18 07:19:39;;;;;;;10.35;8.65;;;23.80;40.20;;;;;;5070762;28;20045;-82
2022/04/18 07:22:04;;;;;;;9.90;8.77;;;24.10;39.70;;;;;;5070362;28;20146;-82
2022/04/18 07:24:30;;;;;;;10.00;8.10;;;24.50;42.90;;;;;;5066473;28;20054;-82
2022/04/18 07:27:00;;;;;;;8.90;8.00;;;;;;;;;;5072074;28;20529;-83
2022/04/18 07:29:27;;;;;;;8.93;8.02;;;25.00;39.10;;;;;;5053570;28;20458;-82
2022/04/18 07:31:53;;;;;;;9.23;7.70;;;24.30;38.90;;;;;;5048894;28;20124;-82
2022/04/18 07:34:18;;;;;;;9.13;8.23;;;24.40;39.10;;;;;;5053539;28;20123;-82
2022/04/18 07:36:44;;;;;;;11.40;8.93;;;24.20;39.60;;;;;;5051169;28;20106;-82
2022/04/18 07:39:09;;;;;;;8.30;7.53;;;24.20;38.70;;;;;;5053372;28;20048;-82
2022/04/18 07:41:35;;;;;;;9.02;8.23;;;24.60;41.30;;;;;;5053715;28;20438;-82
2022/04/18 07:44:03;;;;;;;8.90;8.00;;;24.40;39.00;;;;;;5054001;28;20402;-82
2022/04/18 07:46:30;;;;;;;8.98;7.65;;;24.40;40.00;;;;;;5062845;28;20065;-81
2022/04/18 07:48:56;;;;;;;7.95;7.15;;;24.30;41.50;;;;;;5056433;28;20119;-82
2022/04/18 07:51:32;;;;;;;9.80;6.82;;;23.90;42.50;;;;;;5069310;28;20072;-82
2022/04/18 07:53:58;;;;;;;7.57;6.78;;;23.00;43.20;;;;;;5049877;28;20040;-82
2022/04/18 07:56:23;;;;;;;8.38;6.53;;;21.90;44.50;;;;;;5062441;28;20072;-82
2022/04/18 07:58:50;;;;;;;8.45;7.45;;;21.10;45.80;;;;;;5055054;28;20079;-81
2022/04/18 08:01:16;;;;;;;8.13;7.03;;;20.40;47.20;;;;;;5056358;28;20086;-81
2022/04/18 08:03:41;;;;;;;9.00;7.20;;;19.80;48.50;;;;;;5074919;28;20040;-81
2022/04/18 08:06:07;;;;;;;6.88;6.18;;;19.40;49.70;;;;;;5070105;28;20044;-81
2022/04/18 08:08:33;;;;;;;6.97;6.28;;;19.10;50.70;;;;;;5071298;28;20038;-81
2022/04/18 08:10:59;;;;;;;8.85;7.18;;;18.80;51.30;;;;;;5072488;28;20052;-81
2022/04/18 08:13:25;;;;;;;8.32;6.78;;;18.50;52.00;;;;;;5075072;28;20040;-81
2022/04/18 08:15:51;;;;;;;7.35;6.05;;;18.30;52.70;;;;;;5056374;28;20045;-81
2022/04/18 08:18:17;;;;;;;7.30;5.93;;;18.00;52.90;;;;;;5067955;28;20112;-81
2022/04/18 08:20:42;;;;;;;7.10;6.28;;;17.80;53.90;;;;;;5073798;28;20135;-81
2022/04/18 08:23:08;;;;;;;6.97;6.28;;;17.60;54.00;;;;;;5071075;28;20574;-81
2022/04/18 08:25:34;;;;;;;7.03;6.28;;;17.40;51.50;;;;;;5070626;28;20028;-80
2022/04/18 08:27:59;;;;;;;7.53;6.72;;;17.30;52.30;;;;;;5067000;28;20509;-80
2022/04/18 08:30:25;;;;;;;7.65;6.47;;;17.30;55.10;;;;;;5071659;28;20037;-80
2022/04/18 08:32:50;;;;;;;17.63;6.80;;;17.30;55.60;;;;;;5070189;28;20187;-80
2022/04/18 08:35:16;;;;;;;7.78;6.40;;;17.20;55.20;;;;;;5056593;28;20032;-81
2022/04/18 08:37:42;;;;;;;7.05;6.32;;;17.30;56.10;;;;;;5072658;28;20061;-81
2022/04/18 08:40:10;;;;;;;5.90;5.20;;;17.40;56.40;;;;;;5066662;28;20041;-81
2022/04/18 08:42:37;;;;;;;6.30;5.70;;;17.40;56.30;;;;;;5065204;28;20055;-80
2022/04/18 08:45:09;;;;;;;8.07;5.68;;;17.40;56.00;;;;;;5071827;28;20047;-80
2022/04/18 08:53:10;;;;;;;6.85;5.80;;;17.40;54.30;;;;;;5073519;28;20052;-80
2022/04/18 08:55:36;;;;;;;7.45;6.15;;;17.50;56.90;;;;;;5069233;28;20068;-80
2022/04/18 08:58:02;;;;;;;6.55;5.95;;;17.50;55.90;;;;;;5077017;28;20041;-80
2022/04/18 09:00:28;;;;;;;7.60;5.97;;;17.50;55.20;;;;;;5069155;28;20024;-81
2022/04/18 09:02:54;;;;;;;7.00;6.00;;;17.30;49.70;;;;;;5074441;28;20082;-81
2022/04/18 09:05:20;;;;;;;10.57;7.28;;;17.30;55.20;;;;;;5054759;28;20037;-80
2022/04/18 09:08:01;;;;;;;7.10;6.40;;;17.50;57.30;;;;;;5072529;28;20059;-81
2022/04/18 09:10:28;;;;;;;11.05;8.13;;;17.60;55.60;;;;;;5073391;28;20040;-79
2022/04/18 09:13:01;;;;;;;6.97;6.20;;;17.60;57.10;;;;;;5070720;28;20371;-80
2022/04/18 09:15:40;;;;;;;6.40;5.80;;;17.40;49.40;;;;;;5051214;28;20382;-80
2022/04/18 09:18:15;;;;;;;8.85;5.82;;;17.40;49.70;;;;;;5076857;28;20032;-79
2022/04/18 09:20:43;;;;;;;6.63;5.80;;;17.50;55.20;;;;;;5081313;28;20509;-80
2022/04/18 09:23:29;;;;;;;7.20;5.60;;;17.70;56.60;;;;;;5070202;28;20063;-79
2022/04/18 09:26:00;;;;;;;7.68;5.90;;;17.80;56.20;;;;;;5072762;28;20112;-79
2022/04/18 09:28:46;;;;;;;8.25;5.45;;;17.90;55.90;;;;;;5053322;28;20047;-79
2022/04/18 09:31:13;;;;;;;7.40;5.90;;;17.90;55.10;;;;;;5061239;28;20052;-78
2022/04/18 09:33:44;;;;;;;9.32;6.38;;;18.10;56.30;;;;;;5064490;28;20113;-79
2022/04/18 09:36:19;;;;;;;5.85;4.88;;;18.10;56.00;;;;;;5053680;28;20143;-79
2022/04/18 09:38:52;;;;;;;5.72;5.18;;;18.00;54.30;;;;;;5069866;28;20062;-79
2022/04/18 09:41:26;;;;;;;10.20;5.20;;;18.10;56.50;;;;;;5063121;28;20072;-79
2022/04/18 09:43:53;;;;;;;7.78;5.07;;;18.10;54.30;;;;;;5074682;28;20055;-79
2022/04/18 09:46:19;;;;;;;5.80;4.45;;;18.30;54.90;;;;;;5067247;28;20041;-79
2022/04/18 09:48:47;;;;;;;9.13;5.15;;;18.40;56.50;;;;;;5066905;28;20047;-79
2022/04/18 09:51:15;;;;;;;6.38;4.85;;;18.50;47.80;;;;;;5071440;28;20561;-79
2022/04/18 09:53:43;;;;;;;5.93;5.13;;;18.50;54.30;;;;;;5072507;28;20135;-80
2022/04/18 09:56:17;;;;;;;11.35;9.77;;;18.70;55.00;;;;;;5070164;28;20044;-79
2022/04/18 09:58:43;;;;;;;8.38;5.07;;;18.80;53.50;;;;;;5069647;28;20045;-79
2022/04/18 10:01:10;;;;;;;6.53;4.30;;;18.90;54.70;;;;;;5070620;28;20040;-79
2022/04/18 10:03:36;;;;;;;5.93;4.53;;;19.00;55.40;;;;;;5070269;28;20383;-79
2022/04/18 10:06:03;;;;;;;6.85;5.10;;;19.10;55.00;;;;;;5053840;28;20041;-79
2022/04/18 10:08:30;;;;;;;4.95;4.13;;;19.20;54.50;;;;;;5070588;28;20150;-79
2022/04/18 10:11:00;;;;;;;4.97;4.47;;;19.10;53.30;;;;;;5071142;28;20072;-79
2022/04/18 10:13:27;;;;;;;5.88;4.72;;;19.10;54.70;;;;;;5070392;28;20045;-79
2022/04/18 10:15:54;;;;;;;6.38;4.85;;;19.20;54.10;;;;;;5071221;28;20044;-79
2022/04/18 10:18:20;;;;;;;6.13;5.25;;;19.30;54.70;;;;;;5068266;28;20036;-79
2022/04/18 10:21:01;;;;;;;5.70;4.50;;;19.30;51.10;;;;;;5069999;28;20051;-78
2022/04/18 10:23:38;;;;;;;4.85;4.38;;;19.20;51.10;;;;;;5062485;28;20083;-78
2022/04/18 10:26:22;;;;;;;5.82;5.22;;;19.30;54.00;;;;;;5073853;28;20044;-79
2022/04/18 10:28:50;;;;;;;4.68;4.20;;;19.40;53.30;;;;;;5057960;28;20048;-79
2022/04/18 10:31:22;;;;;;;4.97;4.55;;;19.40;53.70;;;;;;5071852;28;20036;-80
2022/04/18 10:33:48;;;;;;;4.80;4.32;;;19.40;54.40;;;;;;5064845;28;20446;-79
2022/04/18 10:36:25;;;;;;;5.28;4.15;;;19.50;54.40;;;;;;5066827;28;20056;-79
2022/04/18 10:38:51;;;;;;;3.97;3.60;;;19.60;51.90;;;;;;5069797;28;20097;-79
2022/04/18 10:41:36;;;;;;;5.53;4.72;;;19.60;53.00;;;;;;5068076;28;20040;-79
2022/04/18 10:44:05;;;;;;;5.78;4.28;;;19.60;50.60;;;;;;5050438;28;20067;-79
2022/04/18 10:46:30;;;;;;;4.75;4.10;;;19.80;53.40;;;;;;5064826;28;20051;-79
2022/04/18 10:48:57;;;;;;;5.15;4.65;;;20.00;53.70;;;;;;5069501;28;20029;-79
2022/04/18 10:51:29;;;;;;;4.95;3.90;;;19.90;51.30;;;;;;5068844;28;20127;-79
2022/04/18 10:54:13;;;;;;;3.63;3.33;;;20.00;48.10;;;;;;5054138;28;20086;-79
2022/04/18 10:56:53;;;;;;;4.95;2.90;;;20.10;51.90;;;;;;5063682;28;20073;-78
2022/04/18 10:59:26;;;;;;;4.03;3.63;;;20.20;51.30;;;;;;5070458;28;20595;-82
2022/04/18 11:01:56;;;;;;;4.47;3.30;;;20.20;51.10;;;;;;5068045;28;20052;-79
2022/04/18 11:04:30;;;;;;;4.78;2.97;;;20.20;51.80;;;;;;5048811;28;20051;-80
2022/04/18 11:07:03;;;;;;;3.63;3.08;;;20.30;51.90;;;;;;5074151;28;20081;-79
2022/04/18 11:09:32;;;;;;;3.17;2.70;;;20.30;51.30;;;;;;5070362;28;20421;-80
2022/04/18 11:12:01;;;;;;;3.75;3.20;;;20.40;51.00;;;;;;5065720;28;20050;-81
2022/04/18 11:14:30;;;;;;;3.75;3.38;;;20.30;38.50;;;;;;5069671;28;20084;-81
2022/04/18 11:16:58;;;;;;;4.07;3.42;;;20.20;48.00;;;;;;5074789;28;20045;-82
2022/04/18 11:19:32;;;;;;;4.45;3.90;;;20.30;48.60;;;;;;5066910;28;20486;-81
2022/04/18 11:22:01;;;;;;;4.15;3.25;;;20.30;45.00;;;;;;5062092;28;20067;-82
2022/04/18 11:24:59;;;;;;;4.78;3.08;;;20.40;50.10;;;;;;5067635;28;20033;-80
2022/04/18 11:27:27;;;;;;;4.60;3.28;;;20.40;50.70;;;;;;5065293;28;20113;-80
2022/04/18 11:29:55;;;;;;;4.65;3.45;;;20.40;49.20;;;;;;5064401;28;20076;-80
2022/04/18 11:32:23;;;;;;;7.35;3.00;;;20.40;47.90;;;;;;5057975;28;20096;-82
2022/04/18 11:34:51;;;;;;;3.72;3.40;;;20.40;49.40;;;;;;5066908;28;20056;-80
2022/04/18 11:37:29;;;;;;;4.05;3.40;;;20.30;45.40;;;;;;5067300;28;20076;-81
2022/04/18 11:39:56;;;;;;;3.75;3.45;;;20.40;49.20;;;;;;5052145;28;20374;-81
2022/04/18 11:42:25;;;;;;;4.13;3.72;;;20.40;50.50;;;;;;5064097;28;20059;-81
2022/04/18 11:44:52;;;;;;;4.65;4.25;;;20.50;51.10;;;;;;5066265;28;20448;-79
2022/04/18 11:47:23;;;;;;;4.28;3.88;;;20.30;42.10;;;;;;5049895;28;20068;-80
2022/04/18 11:49:55;;;;;;;4.80;4.00;;;20.40;49.70;;;;;;5053356;28;20040;-81
2022/04/18 11:52:26;;;;;;;4.93;3.83;;;20.50;50.80;;;;;;5081714;22;20155;-74
2022/04/18 11:54:54;;;;;;;4.60;4.03;;;20.50;50.40;;;;;;5050701;28;20090;-74
2022/04/18 11:57:19;;;;;;;6.07;4.35;;;20.30;48.10;;;;;;5064391;28;20531;-74
2022/04/18 11:59:47;;;;;;;4.72;4.05;;;20.00;38.50;;;;;;5067177;28;20044;-74
2022/04/18 12:07:43;;;;;;;4.55;4.03;;;20.10;50.90;;;;;;5065595;28;20127;-74
2022/04/18 12:10:27;;;;;;;4.53;3.95;;;20.30;51.00;;;;;;5068113;28;20529;-74
2022/04/18 12:12:53;;;;;;;4.97;4.10;;;20.30;46.00;;;;;;5046068;28;20412;-74
2022/04/18 12:15:26;;;;;;;4.60;4.18;;;20.20;37.90;;;;;;5064219;28;20127;-74
2022/04/18 12:17:53;;;;;;;4.03;3.72;;;20.30;49.10;;;;;;5081514;28;20072;-74
2022/04/18 12:20:21;;;;;;;4.15;3.70;;;20.10;43.20;;;;;;5058707;28;20131;-75
2022/04/18 12:22:52;;;;;;;4.32;3.92;;;20.30;50.40;;;;;;5067093;28;20072;-75
2022/04/18 12:25:28;;;;;;;4.18;3.80;;;20.30;48.30;;;;;;5067339;28;20044;-74
2022/04/18 12:27:56;;;;;;;4.05;3.50;;;20.30;47.50;;;;;;5062719;28;20072;-74
2022/04/18 12:30:22;;;;;;;4.70;4.28;;;20.40;48.80;;;;;;5064220;28;20540;-73
2022/04/18 12:32:48;;;;;;;4.82;3.90;;;20.30;44.10;;;;;;5067527;28;20040;-74
2022/04/18 12:35:41;;;;;;;4.03;3.60;;;20.30;44.90;;;;;;5063733;28;20559;-74
2022/04/18 12:38:09;;;;;;;4.63;3.90;;;20.00;38.60;;;;;;5062642;28;20049;-74
2022/04/18 12:40:36;;;;;;;3.53;3.15;;;20.30;49.60;;;;;;5061218;28;20086;-74
2022/04/18 12:43:11;;;;;;;4.60;3.80;;;20.40;47.90;;;;;;5069224;28;20490;-74
2022/04/18 12:45:41;;;;;;;5.90;3.80;;;20.50;48.00;;;;;;5066206;28;20037;-74
2022/04/18 12:48:07;;;;;;;4.00;3.60;;;20.50;49.10;;;;;;5037963;28;20568;-73
2022/04/18 12:50:36;;;;;;;4.57;3.83;;;20.60;47.60;;;;;;5070095;28;20067;-73
2022/04/18 12:53:02;;;;;;;5.03;4.03;;;20.60;47.60;;;;;;5069213;28;20054;-73
2022/04/18 12:55:30;;;;;;;6.00;3.72;;;20.70;42.40;;;;;;5069356;28;20045;-73
2022/04/18 12:57:56;;;;;;;4.63;3.88;;;20.70;49.90;;;;;;5061894;28;20382;-73
2022/04/18 13:00:23;;;;;;;5.53;4.28;;;20.70;46.80;;;;;;5065633;28;20374;-73
2022/04/18 13:03:26;;;;;;;4.35;3.85;;;20.70;49.00;;;;;;5069530;28;20490;-73